Time;durP1;ratioP1;P1;durP2;ratioP2;P2;SDS_P1;SDS_P2;PMS_P1;PMS_P2;Temp;Humidity;BMP_temperature;BMP_pressure;BME280_temperature;BME280_humidity;BME280_pressure;Samples;Min_cycle;Max_cycle;Signal;HPM_P1;HPM_P2
2022/02/28 00:00:15;;;;;;;118.72;52.93;;;;;;;-2.23;74.44;102226.73;2008902;88;30999;-73
2022/02/28 00:03:19;;;;;;;122.15;53.78;;;;;;;-2.26;74.49;102218.78;2035843;86;30676;-75
2022/02/28 00:06:20;;;;;;;122.90;54.38;;;;;;;-2.31;74.47;102222.97;2048740;86;30114;-76
2022/02/28 00:09:23;;;;;;;125.70;53.05;;;;;;;-2.36;74.45;102225.44;2029716;86;27674;-74
2022/02/28 00:12:25;;;;;;;119.53;54.45;;;;;;;-2.40;74.56;102230.10;2045285;86;28629;-72
2022/02/28 00:15:27;;;;;;;127.53;54.73;;;;;;;-2.43;74.68;102222.55;2049941;85;31106;-75
2022/02/28 00:18:28;;;;;;;128.72;53.55;;;;;;;-2.48;74.66;102225.02;2047383;86;33832;-72
2022/02/28 00:21:30;;;;;;;138.80;57.73;;;;;;;-2.51;74.67;102219.22;2023268;87;29330;-72
2022/02/28 00:24:32;;;;;;;134.18;55.67;;;;;;;-2.56;74.75;102215.97;2034453;87;27727;-74
2022/02/28 00:27:34;;;;;;;118.10;55.20;;;;;;;-2.60;74.77;102222.84;2003388;87;28060;-74
2022/02/28 00:30:37;;;;;;;119.72;55.33;;;;;;;-2.62;74.76;102212.71;1999711;88;31810;-75
2022/02/28 00:33:38;;;;;;;124.47;53.08;;;;;;;-2.65;74.73;102217.84;2034527;87;32956;-74
2022/02/28 00:36:40;;;;;;;134.03;56.55;;;;;;;-2.69;74.77;102215.94;2001055;87;30161;-75
2022/02/28 00:39:42;;;;;;;126.02;53.73;;;;;;;-2.73;74.79;102211.45;1993794;87;27741;-73
2022/02/28 00:42:44;;;;;;;128.32;55.65;;;;;;;-2.77;74.81;102208.70;2021240;87;28673;-73
2022/02/28 00:45:46;;;;;;;130.65;54.65;;;;;;;-2.80;74.75;102202.43;2030115;87;31028;-74
2022/02/28 00:48:47;;;;;;;120.65;53.35;;;;;;;-2.83;74.75;102205.84;2031198;86;33765;-73
2022/02/28 00:51:50;;;;;;;120.20;52.85;;;;;;;-2.85;74.84;102200.08;2006612;87;29307;-72
2022/02/28 00:54:52;;;;;;;122.85;52.43;;;;;;;-2.88;74.80;102209.14;2027510;87;27864;-75
2022/02/28 00:57:54;;;;;;;126.07;54.55;;;;;;;-2.92;74.80;102203.78;2037633;85;28500;-77
2022/02/28 01:00:57;;;;;;;114.45;49.65;;;;;;;-2.95;74.83;102199.72;2028296;86;31197;-76
2022/02/28 01:03:59;;;;;;;125.12;52.55;;;;;;;-2.97;74.83;102195.27;2039279;87;32972;-77
2022/02/28 01:07:01;;;;;;;116.40;52.13;;;;;;;-3.00;74.83;102191.22;2033353;85;29372;-77
2022/02/28 01:10:06;;;;;;;116.73;52.50;;;;;;;-3.03;74.82;102193.72;2012739;86;27526;-77
2022/02/28 01:13:10;;;;;;;117.97;49.23;;;;;;;-3.07;74.86;102194.95;2029763;86;28670;-76
2022/02/28 01:16:11;;;;;;;116.97;50.50;;;;;;;-3.09;74.88;102194.39;2010984;86;31968;-77
2022/02/28 01:19:12;;;;;;;120.90;50.35;;;;;;;-3.12;74.94;102188.63;2011710;86;33778;-76
2022/02/28 01:22:14;;;;;;;110.10;49.23;;;;;;;-3.16;74.92;102187.16;2049299;86;30283;-75
2022/02/28 01:25:16;;;;;;;118.70;49.98;;;;;;;-3.17;74.89;102182.74;2030741;86;28462;-74
2022/02/28 01:28:18;;;;;;;112.40;48.40;;;;;;;-3.22;74.93;102180.83;2012938;86;28738;-75
2022/02/28 01:31:20;;;;;;;107.25;48.52;;;;;;;-3.24;74.90;102175.95;2029415;86;31037;-74
2022/02/28 01:34:21;;;;;;;117.62;50.67;;;;;;;-3.27;74.93;102179.76;2009543;88;33020;-74
2022/02/28 01:37:23;;;;;;;112.12;48.87;;;;;;;-3.30;74.91;102173.08;2000524;89;29323;-75
2022/02/28 01:40:26;;;;;;;104.10;47.83;;;;;;;-3.33;74.87;102178.64;2009116;88;27688;-75
2022/02/28 01:43:27;;;;;;;107.87;46.98;;;;;;;-3.37;74.87;102175.89;2009882;88;28678;-73
2022/02/28 01:46:29;;;;;;;114.03;48.17;;;;;;;-3.38;74.84;102177.16;2008854;88;31082;-72
2022/02/28 01:49:31;;;;;;;113.37;49.65;;;;;;;-3.41;74.88;102184.49;2009559;88;33021;-74
2022/02/28 01:52:33;;;;;;;120.62;50.65;;;;;;;-3.43;74.88;102182.23;2009631;88;29494;-73
2022/02/28 01:55:34;;;;;;;102.85;46.28;;;;;;;-3.46;74.89;102186.44;2029592;87;27593;-73
2022/02/28 01:58:38;;;;;;;101.22;45.98;;;;;;;-3.49;74.90;102181.98;2029255;87;29569;-72
2022/02/28 02:01:40;;;;;;;109.10;47.33;;;;;;;-3.52;74.88;102178.83;2036724;86;31044;-74
2022/02/28 02:04:42;;;;;;;111.50;47.45;;;;;;;-3.54;74.83;102180.90;2052728;86;32965;-72
2022/02/28 02:07:44;;;;;;;104.15;46.15;;;;;;;-3.57;74.82;102179.06;2033906;86;29490;-77
2022/02/28 02:10:46;;;;;;;105.78;46.23;;;;;;;-3.60;74.85;102175.44;2033823;87;27843;-75
2022/02/28 02:13:49;;;;;;;101.38;44.13;;;;;;;-3.62;74.92;102174.48;2032631;87;28824;-76
2022/02/28 02:16:50;;;;;;;111.10;45.52;;;;;;;-3.65;74.90;102170.03;2014779;87;31822;-76
2022/02/28 02:19:54;;;;;;;101.92;42.98;;;;;;;-3.68;74.92;102181.26;2014075;87;33009;-76
2022/02/28 02:23:04;;;;;;;107.32;44.23;;;;;;;-3.70;74.91;102175.06;2029120;87;30120;-73
2022/02/28 02:26:06;;;;;;;103.20;44.00;;;;;;;-3.72;74.91;102172.80;2014622;88;27667;-71
2022/02/28 02:29:08;;;;;;;103.42;43.98;;;;;;;-3.75;74.90;102174.41;2013587;88;28635;-72
2022/02/28 02:32:14;;;;;;;108.22;45.05;;;;;;;-3.77;74.82;102173.05;2015129;88;31096;-71
2022/02/28 02:35:16;;;;;;;107.75;45.17;;;;;;;-3.81;74.87;102164.59;1988591;88;32979;-72
2022/02/28 02:38:18;;;;;;;101.05;43.40;;;;;;;-3.84;74.91;102161.84;2038244;87;30179;-72
2022/02/28 02:41:20;;;;;;;103.95;42.85;;;;;;;-3.87;74.98;102163.94;2039339;87;27714;-76
2022/02/28 02:44:22;;;;;;;96.05;40.95;;;;;;;-3.89;75.03;102153.81;2024244;87;28085;-71
2022/02/28 02:47:24;;;;;;;103.32;44.65;;;;;;;-3.90;74.97;102156.38;2016352;86;31842;-74
2022/02/28 02:50:25;;;;;;;96.32;38.35;;;;;;;-3.90;75.12;102155.95;2016620;86;32951;-75
2022/02/28 02:53:27;;;;;;;98.70;39.35;;;;;;;-3.90;75.22;102158.56;2017267;86;29344;-72
2022/02/28 02:56:29;;;;;;;96.22;37.45;;;;;;;-3.91;75.38;102154.16;2020310;86;27718;-72
2022/02/28 02:59:31;;;;;;;92.70;37.83;;;;;;;-3.86;75.65;102154.33;2032788;86;28809;-76
2022/02/28 03:02:33;;;;;;;86.42;36.33;;;;;;;-3.86;75.70;102147.39;2029818;85;31217;-74
2022/02/28 03:05:34;;;;;;;91.30;37.50;;;;;;;-3.84;75.70;102152.67;2033596;86;32944;-69
2022/02/28 03:08:36;;;;;;;92.80;37.50;;;;;;;-3.81;76.05;102159.34;2020040;86;29491;-74
2022/02/28 03:11:39;;;;;;;89.28;38.92;;;;;;;-3.77;76.12;102151.19;2014806;86;27736;-70
2022/02/28 03:14:41;;;;;;;91.75;38.33;;;;;;;-3.74;76.20;102154.84;2030807;86;29490;-72
2022/02/28 03:17:43;;;;;;;102.90;41.40;;;;;;;-3.70;76.40;102152.80;2039657;86;32139;-71
2022/02/28 03:20:45;;;;;;;89.17;39.33;;;;;;;-3.64;76.63;102159.13;2043381;86;33069;-71
2022/02/28 03:23:47;;;;;;;92.95;40.78;;;;;;;-3.60;76.48;102157.10;2014151;85;29328;-71
2022/02/28 03:26:48;;;;;;;90.72;41.02;;;;;;;-3.59;76.52;102159.77;2036758;86;27694;-73
2022/02/28 03:29:50;;;;;;;101.42;40.15;;;;;;;-3.55;76.58;102147.67;2028221;86;28627;-70
2022/02/28 03:32:51;;;;;;;96.53;41.92;;;;;;;-3.53;76.52;102156.48;2044264;86;30999;-70
2022/02/28 03:35:53;;;;;;;89.37;39.45;;;;;;;-3.52;76.49;102156.56;1981650;89;32393;-77
2022/02/28 03:38:55;;;;;;;96.37;40.10;;;;;;;-3.49;76.46;102154.91;1981441;89;29434;-69
2022/02/28 03:41:57;;;;;;;92.42;39.75;;;;;;;-3.48;76.46;102154.95;1981716;89;27671;-68
2022/02/28 03:44:59;;;;;;;94.00;39.63;;;;;;;-3.49;76.35;102157.09;1981645;89;28822;-69
2022/02/28 03:48:01;;;;;;;89.13;38.92;;;;;;;-3.48;76.33;102160.19;2009325;88;31043;-75
2022/02/28 03:51:04;;;;;;;96.22;38.65;;;;;;;-3.48;76.36;102158.87;2009717;88;33072;-70
2022/02/28 03:54:10;;;;;;;89.50;38.80;;;;;;;-3.48;76.34;102165.43;2009650;87;29348;-76
2022/02/28 03:57:09;;;;;;;90.45;38.55;;;;;;;-3.48;76.23;102160.19;2009492;88;27655;-69
2022/02/28 04:00:13;;;;;;;93.35;40.92;;;;;;;-3.47;76.25;102157.17;2030225;86;29411;-71
2022/02/28 04:03:15;;;;;;;86.87;38.80;;;;;;;-3.48;76.14;102160.62;2035974;86;31846;-73
2022/02/28 04:06:16;;;;;;;85.57;39.00;;;;;;;-3.49;76.16;102170.19;2024747;86;32951;-71
2022/02/28 04:09:18;;;;;;;90.12;40.78;;;;;;;-3.49;76.16;102168.87;2041562;86;29169;-75
2022/02/28 04:12:20;;;;;;;98.45;41.80;;;;;;;-3.49;76.14;102171.93;2049758;86;27809;-71
2022/02/28 04:15:21;;;;;;;89.03;38.42;;;;;;;-3.49;76.19;102166.69;2046397;86;29650;-70
2022/02/28 04:18:23;;;;;;;88.33;38.92;;;;;;;-3.50;76.19;102164.47;1998891;86;31899;-70
2022/02/28 04:21:25;;;;;;;89.28;37.58;;;;;;;-3.51;76.22;102166.22;2049174;86;33010;-70
2022/02/28 04:24:26;;;;;;;90.45;37.30;;;;;;;-3.52;76.15;102160.50;2046772;86;29519;-71
2022/02/28 04:27:28;;;;;;;87.37;38.75;;;;;;;-3.54;76.09;102154.70;2017596;86;27827;-71
2022/02/28 04:30:30;;;;;;;86.15;38.20;;;;;;;-3.54;76.16;102156.02;2011848;86;28627;-71
2022/02/28 04:33:32;;;;;;;85.00;37.67;;;;;;;-3.55;76.17;102161.69;2036941;86;30959;-70
2022/02/28 04:36:34;;;;;;;86.08;38.83;;;;;;;-3.57;76.20;102158.11;2016586;86;33014;-72
2022/02/28 04:39:36;;;;;;;81.63;36.20;;;;;;;-3.59;76.18;102157.15;2011357;86;29404;-77
2022/02/28 04:42:37;;;;;;;80.38;36.30;;;;;;;-3.58;76.17;102162.86;2013177;86;27709;-78
2022/02/28 04:45:39;;;;;;;88.07;39.38;;;;;;;-3.59;76.19;102160.20;2027349;86;29505;-71
2022/02/28 04:48:41;;;;;;;79.50;36.58;;;;;;;-3.61;76.02;102161.86;2043870;86;31104;-73
2022/02/28 04:51:43;;;;;;;75.15;35.30;;;;;;;-3.64;76.02;102157.81;2015407;86;33698;-71
2022/02/28 04:54:45;;;;;;;81.42;34.25;;;;;;;-3.65;76.15;102158.24;2040790;86;29159;-77
2022/02/28 04:57:46;;;;;;;75.00;36.28;;;;;;;-3.65;76.11;102158.24;2011842;88;27693;-71
2022/02/28 05:00:48;;;;;;;82.85;38.88;;;;;;;-3.66;76.17;102157.33;2012217;86;28057;-77
2022/02/28 05:03:50;;;;;;;88.55;36.73;;;;;;;-3.64;76.23;102166.98;2022232;86;31843;-72
2022/02/28 05:06:52;;;;;;;85.67;38.23;;;;;;;-3.66;76.19;102163.00;2016445;86;32951;-78
2022/02/28 05:09:54;;;;;;;95.97;38.88;;;;;;;-3.65;76.18;102166.09;2027819;86;29334;-74
2022/02/28 05:12:55;;;;;;;81.25;36.88;;;;;;;-3.67;76.15;102166.02;2049600;86;27649;-70
2022/02/28 05:15:59;;;;;;;82.45;35.08;;;;;;;-3.67;76.22;102167.77;2025653;86;28631;-77
2022/02/28 05:19:01;;;;;;;83.17;37.90;;;;;;;-3.66;76.24;102172.17;2001645;87;31067;-70
2022/02/28 05:22:03;;;;;;;80.62;34.83;;;;;;;-3.67;76.21;102163.83;2007739;87;32955;-70
2022/02/28 05:25:06;;;;;;;84.22;35.70;;;;;;;-3.67;76.19;102171.69;2017979;87;29332;-70
2022/02/28 05:28:08;;;;;;;72.80;33.75;;;;;;;-3.68;76.20;102169.47;2001577;87;27773;-75
2022/02/28 05:31:10;;;;;;;73.55;32.48;;;;;;;-3.68;76.20;102172.09;2013731;87;28784;-70
2022/02/28 05:34:11;;;;;;;82.62;33.28;;;;;;;-3.67;76.21;102171.69;2025495;87;31843;-71
2022/02/28 05:37:14;;;;;;;81.02;34.80;;;;;;;-3.69;76.20;102175.97;1973546;89;32417;-71
2022/02/28 05:40:16;;;;;;;79.55;33.75;;;;;;;-3.68;76.14;102183.00;1996753;89;30167;-71
2022/02/28 05:43:18;;;;;;;77.15;33.70;;;;;;;-3.69;76.24;102179.47;1997166;87;27626;-71
2022/02/28 05:46:20;;;;;;;71.28;32.03;;;;;;;-3.68;76.17;102181.26;1996157;89;29299;-69
2022/02/28 05:49:22;;;;;;;69.00;33.30;;;;;;;-3.67;76.13;102188.72;1976983;90;31942;-70
2022/02/28 05:52:24;;;;;;;70.17;32.05;;;;;;;-3.67;76.15;102183.48;1977065;90;33043;-71
2022/02/28 05:55:28;;;;;;;65.75;31.77;;;;;;;-3.67;76.12;102184.78;1976661;90;30171;-71
2022/02/28 05:58:29;;;;;;;66.60;30.15;;;;;;;-3.66;76.13;102191.38;1977502;89;27723;-73
2022/02/28 06:01:32;;;;;;;71.55;31.27;;;;;;;-3.63;76.18;102186.67;1976729;90;28652;-70
2022/02/28 06:04:33;;;;;;;79.95;35.83;;;;;;;-3.60;76.11;102191.16;1995698;88;31711;-70
2022/02/28 06:07:36;;;;;;;85.60;39.15;;;;;;;-3.57;76.00;102192.59;1996810;88;32964;-72
2022/02/28 06:10:38;;;;;;;70.60;33.18;;;;;;;-3.54;75.97;102186.14;1993296;88;30135;-70
2022/02/28 06:13:39;;;;;;;72.55;33.60;;;;;;;-3.52;75.86;102187.09;1984621;88;27780;-71
2022/02/28 06:16:41;;;;;;;62.03;30.30;;;;;;;-3.49;75.81;102183.72;2007076;87;28609;-68
2022/02/28 06:19:43;;;;;;;73.17;32.83;;;;;;;-3.47;75.72;102184.25;2049764;86;31174;-74
2022/02/28 06:22:44;;;;;;;78.67;36.98;;;;;;;-3.43;75.80;102183.94;2067894;86;33046;-74
2022/02/28 06:25:46;;;;;;;79.12;35.43;;;;;;;-3.34;75.91;102183.40;2065478;86;30206;-69
2022/02/28 06:28:48;;;;;;;65.05;32.17;;;;;;;-3.21;76.04;102190.48;2067821;86;27721;-69
2022/02/28 06:31:50;;;;;;;96.42;41.92;;;;;;;-3.02;76.22;102188.55;2068057;86;29428;-71
2022/02/28 06:34:53;;;;;;;78.10;34.53;;;;;;;-2.79;76.37;102197.66;2063684;86;31355;-72
2022/02/28 06:37:55;;;;;;;70.80;34.18;;;;;;;-2.56;76.42;102206.78;2043226;86;33007;-73
2022/02/28 06:40:57;;;;;;;72.62;33.80;;;;;;;-2.35;76.15;102202.30;2038968;86;29441;-72
2022/02/28 06:43:59;;;;;;;72.90;33.88;;;;;;;-2.12;76.04;102203.47;2042223;86;27770;-68
2022/02/28 06:47:01;;;;;;;83.47;36.93;;;;;;;-1.94;75.84;102208.87;2021582;87;28763;-70
2022/02/28 06:50:04;;;;;;;100.62;49.05;;;;;;;-1.80;75.64;102209.33;2038063;86;31838;-73
2022/02/28 06:53:06;;;;;;;70.97;34.18;;;;;;;-1.68;75.70;102201.83;2037832;86;32992;-68
2022/02/28 06:56:08;;;;;;;67.25;32.48;;;;;;;-1.53;75.53;102206.25;2055405;86;29343;-69
2022/02/28 06:59:10;;;;;;;60.70;28.02;;;;;;;-1.39;75.42;102211.95;2067648;86;27781;-70
2022/02/28 07:02:12;;;;;;;48.58;25.45;;;;;;;-1.19;75.34;102223.91;2067876;86;29426;-70
2022/02/28 07:05:14;;;;;;;52.45;25.35;;;;;;;-0.99;74.96;102219.27;2061113;86;31060;-71
2022/02/28 07:08:17;;;;;;;47.48;25.20;;;;;;;-0.80;74.92;102225.94;2050087;86;33747;-70
2022/02/28 07:11:18;;;;;;;47.48;24.85;;;;;;;-0.53;74.87;102219.24;2067625;86;29476;-70
2022/02/28 07:14:20;;;;;;;46.53;23.32;;;;;;;-0.22;74.47;102219.14;2067920;86;27775;-70
2022/02/28 07:17:23;;;;;;;47.05;22.65;;;;;;;0.02;73.27;102216.69;2041154;86;28636;-69
2022/02/28 07:20:25;;;;;;;48.90;22.42;;;;;;;0.24;73.67;102217.69;2051565;86;31050;-70
2022/02/28 07:23:26;;;;;;;54.42;24.60;;;;;;;0.75;73.71;102221.90;2055000;86;33727;-71
2022/02/28 07:26:31;;;;;;;45.28;23.85;;;;;;;1.13;72.33;102218.33;2046805;85;29362;-70
2022/02/28 07:29:33;;;;;;;;;;;;;;;1.44;72.20;102217.16;2057477;85;27643;-69
2022/02/28 07:32:34;;;;;;;41.30;22.80;;;;;;;1.77;71.64;102223.94;2039495;87;28686;-71
2022/02/28 07:35:36;;;;;;;44.65;23.20;;;;;;;2.05;70.64;102220.48;2038984;87;31120;-68
2022/02/28 07:38:39;;;;;;;41.30;21.65;;;;;;;2.37;71.37;102221.84;2039744;87;32796;-68
2022/02/28 07:41:40;;;;;;;39.10;20.30;;;;;;;2.64;68.55;102227.11;2036366;87;29460;-69
2022/02/28 07:44:42;;;;;;;37.73;20.82;;;;;;;2.83;69.15;102222.51;2033573;87;27781;-69
2022/02/28 07:47:44;;;;;;;43.85;22.25;;;;;;;3.09;68.07;102226.37;2033685;87;28137;-69
2022/02/28 07:50:46;;;;;;;40.38;22.27;;;;;;;3.27;68.65;102229.25;2033635;87;31922;-67
2022/02/28 07:53:48;;;;;;;43.55;21.65;;;;;;;3.61;67.99;102234.92;2033245;87;32823;-68
2022/02/28 07:56:49;;;;;;;45.10;21.93;;;;;;;3.74;65.94;102238.61;2033867;87;30345;-69
2022/02/28 07:59:51;;;;;;;39.58;20.48;;;;;;;3.86;66.75;102244.47;2033856;87;27725;-68
2022/02/28 08:02:53;;;;;;;42.23;22.58;;;;;;;4.05;65.07;102248.17;2017360;87;28726;-69
2022/02/28 08:05:54;;;;;;;42.90;22.52;;;;;;;4.13;65.47;102246.91;2014994;87;32205;-66
2022/02/28 08:08:56;;;;;;;41.25;23.07;;;;;;;4.25;65.80;102245.69;2033297;87;32944;-68
2022/02/28 08:11:59;;;;;;;47.35;21.73;;;;;;;4.49;64.39;102245.86;2032648;87;29368;-69
2022/02/28 08:15:01;;;;;;;36.77;21.80;;;;;;;4.62;64.74;102243.77;2033305;87;27747;-68
2022/02/28 08:18:03;;;;;;;38.85;22.10;;;;;;;4.81;62.93;102244.75;2032489;87;29893;-67
2022/02/28 08:21:05;;;;;;;41.45;22.07;;;;;;;4.80;63.61;102246.09;2033215;87;32246;-68
2022/02/28 08:24:07;;;;;;;40.38;22.30;;;;;;;5.05;63.41;102243.55;2033111;87;34209;-67
2022/02/28 08:27:09;;;;;;;34.40;18.80;;;;;;;4.98;60.48;102245.28;2033534;87;29891;-67
2022/02/28 08:57:26;;;;;;;37.78;19.67;;;;;;;3.33;61.86;102257.56;2010937;87;27682;-66
2022/02/28 09:00:28;;;;;;;36.70;20.25;;;;;;;3.23;61.78;102265.83;2037708;87;31025;-67
2022/02/28 09:03:31;;;;;;;46.23;21.82;;;;;;;3.11;62.02;102269.65;2037101;87;32726;-67
2022/02/28 09:06:33;;;;;;;48.90;25.32;;;;;;;3.00;61.78;102268.17;2037555;87;30020;-66
2022/02/28 09:09:35;;;;;;;40.85;21.97;;;;;;;2.96;62.31;102269.03;2036539;87;27710;-67
2022/02/28 09:12:36;;;;;;;40.85;20.68;;;;;;;2.90;61.85;102265.83;2032322;87;30835;-67
2022/02/28 09:15:38;;;;;;;36.88;19.80;;;;;;;2.90;61.99;102268.48;2004096;88;31060;-66
2022/02/28 09:18:41;;;;;;;40.80;20.50;;;;;;;2.92;62.72;102265.88;1998197;88;35097;-67
2022/02/28 09:21:42;;;;;;;47.33;22.73;;;;;;;3.01;62.80;102260.69;2001655;88;30039;-68
2022/02/28 09:24:45;;;;;;;35.35;16.97;;;;;;;3.07;62.72;102267.41;1998846;89;27746;-68
2022/02/28 09:27:47;;;;;;;35.73;17.30;;;;;;;3.09;61.47;102265.67;2001780;88;28662;-68
2022/02/28 09:30:49;;;;;;;30.90;17.73;;;;;;;3.14;61.42;102263.98;1998417;89;32055;-68
2022/02/28 09:33:52;;;;;;;38.02;18.45;;;;;;;3.18;61.36;102264.45;2001505;88;33817;-66
2022/02/28 09:36:53;;;;;;;38.53;19.05;;;;;;;3.21;61.47;102262.72;1999079;89;30791;-68
2022/02/28 09:39:56;;;;;;;34.18;18.30;;;;;;;3.26;60.57;102265.88;1980094;88;27637;-69
2022/02/28 09:43:01;;;;;;;31.27;15.53;;;;;;;3.18;60.27;102263.58;2010219;87;28722;-68
2022/02/28 09:46:04;;;;;;;28.65;15.50;;;;;;;3.14;59.55;102267.95;2010868;87;31394;-68
2022/02/28 09:49:06;;;;;;;29.77;14.28;;;;;;;3.10;60.41;102259.92;2011007;87;34190;-68
2022/02/28 09:52:08;;;;;;;29.72;15.23;;;;;;;3.12;59.91;102264.39;2007874;88;29760;-66
2022/02/28 09:55:13;;;;;;;25.77;12.70;;;;;;;3.17;59.53;102264.00;1999014;88;27723;-68
2022/02/28 09:58:30;;;;;;;21.25;10.75;;;;;;;3.25;60.02;102267.19;1980215;88;28646;-68
2022/02/28 10:01:32;;;;;;;20.23;10.95;;;;;;;3.36;59.14;102267.33;1981518;88;32534;-69
2022/02/28 10:04:34;;;;;;;17.42;9.20;;;;;;;3.36;58.17;102262.03;2008030;88;33354;-68
2022/02/28 10:07:55;;;;;;;22.87;10.50;;;;;;;3.37;55.57;102264.69;2007687;88;30202;-67
2022/02/28 10:10:57;;;;;;;24.80;12.75;;;;;;;3.38;57.18;102266.92;2007291;88;27720;-66
2022/02/28 10:14:05;;;;;;;23.12;12.47;;;;;;;3.46;57.68;102275.83;1999200;87;28564;-70
2022/02/28 10:17:07;;;;;;;24.12;12.07;;;;;;;3.64;58.10;102268.55;1980324;89;31137;-66
2022/02/28 10:20:27;;;;;;;24.02;11.70;;;;;;;3.75;57.23;102265.98;1980829;89;34005;-68
2022/02/28 10:23:30;;;;;;;23.98;11.68;;;;;;;3.89;57.60;102270.98;2008100;88;29671;-67
2022/02/28 10:26:41;;;;;;;20.92;10.05;;;;;;;4.07;57.34;102266.32;2008163;88;27649;-67
2022/02/28 10:29:42;;;;;;;16.32;9.40;;;;;;;4.35;56.46;102273.19;2007704;88;28728;-69
2022/02/28 10:32:50;;;;;;;14.65;8.80;;;;;;;4.49;55.66;102271.07;2007853;88;31907;-68
2022/02/28 10:36:01;;;;;;;9.63;4.85;;;;;;;4.59;56.00;102273.36;1999106;89;32976;-68
2022/02/28 10:38:57;;;;;;;6.65;3.95;;;;;;;4.58;52.44;102267.59;1979573;89;31078;-68
2022/02/28 10:42:14;;;;;;;8.83;4.37;;;;;;;4.46;52.42;102265.31;1981392;89;27718;-67
2022/02/28 10:45:24;;;;;;;5.62;3.62;;;;;;;4.33;51.38;102267.42;2013532;88;28721;-68
2022/02/28 10:48:27;;;;;;;3.60;3.10;;;;;;;4.20;51.61;102268.66;2017114;88;31867;-68
2022/02/28 10:51:31;;;;;;;5.70;3.90;;;;;;;4.10;49.18;102274.73;2014096;88;32474;-67
2022/02/28 10:54:41;;;;;;;8.03;4.37;;;;;;;3.98;50.77;102264.02;2012810;88;29712;-67
2022/02/28 10:57:43;;;;;;;7.60;4.03;;;;;;;3.87;50.22;102261.25;2013732;88;28293;-67
2022/02/28 11:01:04;;;;;;;13.45;5.15;;;;;;;3.81;50.27;102266.06;2013846;88;28827;-68
2022/02/28 11:04:05;;;;;;;6.75;3.72;;;;;;;3.75;49.86;102275.27;2013731;88;32029;-65
2022/02/28 11:07:10;;;;;;;8.98;4.37;;;;;;;3.60;49.00;102268.92;1991418;88;34202;-67
2022/02/28 11:10:15;;;;;;;11.43;4.80;;;;;;;3.55;49.53;102268.01;2013962;88;29496;-66
2022/02/28 11:13:17;;;;;;;8.68;5.17;;;;;;;3.45;48.58;102278.02;2013969;88;27707;-67
2022/02/28 11:16:21;;;;;;;6.92;4.20;;;;;;;3.37;50.38;102273.95;2013457;88;29900;-66
2022/02/28 11:19:24;;;;;;;7.95;4.62;;;;;;;3.34;49.19;102262.91;2003409;87;31855;-66
2022/02/28 11:22:28;;;;;;;9.03;5.45;;;;;;;3.33;50.19;102261.13;1996821;88;34193;-67
2022/02/28 11:25:30;;;;;;;12.30;7.35;;;;;;;3.36;49.68;102269.98;1997038;89;29643;-67
2022/02/28 11:28:32;;;;;;;10.53;5.70;;;;;;;3.42;50.99;102261.67;1997024;89;27609;-66
2022/02/28 11:31:34;;;;;;;11.38;5.85;;;;;;;3.53;50.43;102260.47;1996940;88;29142;-68
2022/02/28 11:34:36;;;;;;;11.12;6.10;;;;;;;3.60;50.42;102257.00;1997158;89;31103;-66
2022/02/28 11:37:38;;;;;;;12.95;5.72;;;;;;;3.58;49.10;102268.02;1997415;87;33922;-65
2022/02/28 11:40:47;;;;;;;12.73;5.10;;;;;;;3.53;48.31;102271.48;1996729;88;30810;-67
2022/02/28 11:43:53;;;;;;;11.45;6.33;;;;;;;3.49;48.54;102246.73;1997407;88;27594;-67
2022/02/28 11:47:13;;;;;;;9.75;5.22;;;;;;;3.54;49.30;102254.30;1996492;89;29066;-66
2022/02/28 11:50:22;;;;;;;9.33;4.67;;;;;;;3.61;47.79;102252.61;1997123;88;31056;-66
2022/02/28 11:54:10;;;;;;;10.63;5.67;;;;;;;3.69;48.70;102246.06;1996992;88;33885;-66
2022/02/28 11:57:45;;;;;;;7.65;4.17;;;;;;;3.82;48.27;102262.95;1994737;88;29670;-67
2022/02/28 12:00:50;;;;;;;8.63;4.37;;;;;;;3.81;46.93;102250.16;1997208;88;28300;-66
2022/02/28 12:04:17;;;;;;;9.00;4.58;;;;;;;3.82;46.79;102251.94;1969585;90;28794;-67
2022/02/28 12:07:31;;;;;;;9.23;4.58;;;;;;;3.84;46.97;102253.27;1991231;88;31067;-67
2022/02/28 12:10:34;;;;;;;6.75;4.50;;;;;;;3.92;47.54;102256.89;1996867;89;34125;-67
2022/02/28 12:13:36;;;;;;;7.22;4.50;;;;;;;3.98;46.66;102258.71;1954830;89;30057;-66
2022/02/28 12:20:29;;;;;;;14.95;5.40;;;;;;;4.01;47.80;102256.09;2021233;87;29513;-67
2022/02/28 12:23:31;;;;;;;17.40;7.83;;;;;;;4.00;46.03;102255.64;2030202;87;31355;-66
2022/02/28 12:26:35;;;;;;;11.57;5.97;;;;;;;3.90;45.19;102258.19;2029305;87;34166;-65
2022/02/28 12:29:37;;;;;;;9.63;6.08;;;;;;;3.81;45.99;102266.06;2029565;87;29806;-66
2022/02/28 12:32:52;;;;;;;8.75;5.33;;;;;;;3.69;45.89;102260.64;2029417;87;27680;-67
2022/02/28 12:36:02;;;;;;;9.45;5.85;;;;;;;3.65;46.83;102259.69;2029885;86;28660;-68
2022/02/28 12:39:14;;;;;;;16.65;6.22;;;;;;;3.69;47.00;102264.16;2018334;87;31196;-67
2022/02/28 12:42:17;;;;;;;10.08;5.95;;;;;;;3.72;46.05;102272.61;2029032;87;33295;-67
2022/02/28 12:45:20;;;;;;;9.83;5.58;;;;;;;3.70;46.18;102265.07;2029410;87;30418;-67
2022/02/28 12:48:24;;;;;;;12.68;6.00;;;;;;;3.73;45.92;102269.05;2029797;87;27635;-66
2022/02/28 12:51:30;;;;;;;8.65;5.62;;;;;;;3.71;46.19;102274.80;2029622;87;28828;-67
2022/02/28 12:54:33;;;;;;;14.15;6.95;;;;;;;3.69;46.32;102260.19;2029700;87;31074;-67
2022/02/28 12:57:38;;;;;;;11.03;6.50;;;;;;;3.73;46.34;102264.66;2029468;87;33554;-67
2022/02/28 13:00:40;;;;;;;;;;;;;;;3.75;46.79;102272.20;2032360;87;29703;-67
2022/02/28 13:03:45;;;;;;;12.40;6.75;;;;;;;3.78;45.04;102275.30;2029019;87;27692;-67
2022/02/28 13:06:46;;;;;;;17.20;7.50;;;;;;;3.76;46.24;102271.33;2000865;89;28819;-68
2022/02/28 13:09:48;;;;;;;12.65;7.30;;;;;;;3.83;46.22;102270.95;2002475;88;31196;-67
2022/02/28 13:12:51;;;;;;;10.90;6.37;;;;;;;3.89;45.83;102264.36;2007610;88;33039;-67
2022/02/28 13:16:00;;;;;;;11.40;6.28;;;;;;;4.01;45.39;102264.05;2001133;88;29631;-67
2022/02/28 13:19:12;;;;;;;17.73;8.25;;;;;;;4.05;45.87;102271.17;1999947;88;27742;-68
2022/02/28 13:22:21;;;;;;;14.98;7.45;;;;;;;4.04;45.08;102267.61;2009440;88;28753;-65
2022/02/28 13:25:24;;;;;;;11.33;6.45;;;;;;;4.03;45.46;102271.13;2009443;88;32296;-67
2022/02/28 13:28:36;;;;;;;16.23;7.87;;;;;;;4.07;43.58;102275.60;2011918;88;34178;-67
2022/02/28 13:31:43;;;;;;;23.32;10.85;;;;;;;4.12;44.94;102276.09;2009815;88;29698;-66
2022/02/28 13:34:46;;;;;;;22.13;9.65;;;;;;;4.14;44.06;102271.70;2007778;88;27650;-66
2022/02/28 13:37:54;;;;;;;15.68;8.28;;;;;;;4.16;44.88;102278.78;2009746;88;29575;-68
2022/02/28 13:40:57;;;;;;;24.87;10.75;;;;;;;4.07;44.04;102286.21;2000706;89;31837;-67
2022/02/28 13:43:59;;;;;;;25.43;10.50;;;;;;;3.91;44.67;102290.91;2000210;88;33008;-65
2022/02/28 13:47:05;;;;;;;18.32;9.80;;;;;;;3.82;42.40;102286.81;2000491;88;30814;-66
2022/02/28 13:50:10;;;;;;;21.75;9.85;;;;;;;3.70;43.83;102286.28;2009952;87;27713;-66
2022/02/28 13:53:21;;;;;;;12.70;7.45;;;;;;;3.50;43.48;102289.58;2009862;88;28662;-66
2022/02/28 13:56:34;;;;;;;13.55;7.15;;;;;;;3.38;44.16;102292.09;2000505;89;32472;-67
2022/02/28 13:59:50;;;;;;;17.23;9.43;;;;;;;3.28;44.45;102298.57;2011514;88;33110;-67
2022/02/28 14:03:20;;;;;;;14.73;7.40;;;;;;;3.20;44.67;102298.92;2012859;87;30397;-66
2022/02/28 14:06:28;;;;;;;15.40;7.60;;;;;;;3.20;43.94;102300.25;2011891;88;27695;-67
2022/02/28 14:09:34;;;;;;;11.63;5.87;;;;;;;3.16;44.35;102305.04;2009244;88;29909;-65
2022/02/28 14:12:38;;;;;;;;;;;;;;;3.10;43.78;102300.97;2012185;88;31041;-66
2022/02/28 14:15:40;;;;;;;8.25;5.55;;;;;;;2.99;43.35;102304.78;2009185;88;33977;-67
2022/02/28 14:19:05;;;;;;;10.32;5.83;;;;;;;2.89;43.67;102303.80;2009422;88;30588;-66
2022/02/28 14:22:12;;;;;;;11.45;5.62;;;;;;;2.86;44.03;102302.42;2009579;88;27753;-66
2022/02/28 14:25:14;;;;;;;7.45;5.37;;;;;;;2.80;42.99;102301.90;2000716;89;28705;-66
2022/02/28 14:28:23;;;;;;;9.00;5.20;;;;;;;2.76;43.60;102304.03;2009950;87;31122;-66
2022/02/28 14:31:25;;;;;;;8.45;4.95;;;;;;;2.74;43.94;102305.77;2009666;88;33158;-67